KRNT - Renton
Updated: Mon, 22-Oct-2018 11:53pm PDT

 Wind from S
Wind: S 3 mph , 6 km/h
Temperature: 48°F , 9°C
Dew Point: 46°F , 8°C
Humidity: 94%
Barometer: 29.88 inHg , 1011.9 hPa
Visibility: 3/4 mile , 5 km
Cloud details: 200 ft
2018/10/23 06:53 KRNT 230653Z 17003KT 3/4SM VV002 09/08 A2988 RMK AO2 SLP122 T00890083
KBFI - Seattle-Boeing
Updated: Mon, 22-Oct-2018 11:53pm PDT
Fog, Overcast
Fog, Overcast
 Wind from calm
Wind: Calm
Temperature: 46°F , 8°C
Dew Point: 46°F , 8°C
Humidity: 100%
Barometer: 29.88 inHg , 1011.9 hPa
Visibility: 1/4 mile , 2 km
Cloud details: 200 ft
2018/10/23 06:53 KBFI 230653Z 00000KT 1/4SM FG VV002 08/08 A2988 RMK AO2 SLP118 T00830078
 
KSEA - Seattle
Updated: Tue, 23-Oct-2018 12:14am PDT
Mist, Mostly cloudy
Mist, Mostly cloudy
 Wind from S
Wind: S 5 mph , 7 km/h
Temperature: 43°F , 6°C
Wind Chill: 40°F , 4°C
Dew Point: 41°F , 5°C
Humidity: 93%
Barometer: 29.87 inHg , 1011.5 hPa
Visibility: 3/4 mile , 5 km
Cloud details: 100 ft
2018/10/23 07:14 KSEA 230714Z 19004KT 3/4SM BR BKN001 06/05 A2987 RMK AO2 TWR VIS 2 T00610050 RVRNO
KSMP - Stampede Pass
Updated: Mon, 22-Oct-2018 11:56pm PDT

 Wind from varies
Wind: varies 3 mph , 6 km/h
Temperature: 45°F , 7°C
Dew Point: 34°F , 1°C
Humidity: 66%
Barometer: 29.97 inHg , 1014.9 hPa
2018/10/23 06:56 KSMP 230656Z AUTO VRB03KT CLR 07/01 A2997 RMK AO2 SLP160 T00720011 401330039 $